createdAt,value
2023-05-01T00:00:57.690Z,0.62
2023-05-01T00:01:57.696Z,0.62
2023-05-01T00:02:57.841Z,0.63
2023-05-01T00:03:58.245Z,0.62
2023-05-01T00:04:57.960Z,0.63
2023-05-01T00:05:57.910Z,0.63
2023-05-01T00:06:57.961Z,0.63
2023-05-01T00:07:57.974Z,0.63
2023-05-01T00:08:58.057Z,0.64
2023-05-01T00:09:58.402Z,0.63
2023-05-01T00:10:58.155Z,0.64
2023-05-01T00:11:58.193Z,0.64
2023-05-01T00:12:58.224Z,0.64
2023-05-01T00:13:58.269Z,0.64
2023-05-01T00:14:58.336Z,0.66
2023-05-01T00:15:58.409Z,0.65
2023-05-01T00:16:58.546Z,0.65
2023-05-01T00:17:58.548Z,0.64
2023-05-01T00:18:58.493Z,0.64
2023-05-01T00:19:58.835Z,0.63
2023-05-01T00:20:58.581Z,0.64
2023-05-01T00:21:58.611Z,0.64
2023-05-01T00:22:58.676Z,0.62
2023-05-01T00:23:58.721Z,0.62
2023-05-01T00:24:58.785Z,0.62
2023-05-01T00:25:58.832Z,0.64
2023-05-01T00:26:58.838Z,0.63
2023-05-01T00:27:58.902Z,0.63
2023-05-01T00:28:58.958Z,0.63
2023-05-01T00:29:59.813Z,0.64
2023-05-01T00:30:59.094Z,0.65
2023-05-01T00:31:59.157Z,0.63
2023-05-01T00:32:59.191Z,0.63
2023-05-01T00:33:59.227Z,0.63
2023-05-01T00:34:59.219Z,0.63
2023-05-01T00:35:59.292Z,0.63
2023-05-01T00:36:59.346Z,0.64
2023-05-01T00:37:59.362Z,0.62
2023-05-01T00:38:59.465Z,0.65
2023-05-01T00:39:59.709Z,0.63
2023-05-01T00:40:59.507Z,0.64
2023-05-01T00:41:59.540Z,0.64
2023-05-01T00:42:59.641Z,0.65
2023-05-01T00:43:59.631Z,0.65
2023-05-01T00:44:59.715Z,0.63
2023-05-01T00:45:59.766Z,0.64
2023-05-01T00:46:59.813Z,0.63
2023-05-01T00:47:59.891Z,0.64
2023-05-01T00:48:59.893Z,0.64
2023-05-01T00:49:59.949Z,0.64
2023-05-01T00:51:00.019Z,0.65
2023-05-01T00:52:00.013Z,0.66
2023-05-01T00:53:00.167Z,0.66
2023-05-01T00:54:00.202Z,0.67
2023-05-01T00:55:00.263Z,0.66
2023-05-01T00:56:00.248Z,0.64
2023-05-01T00:57:00.246Z,0.64
2023-05-01T00:58:00.314Z,0.65
2023-05-01T00:59:00.378Z,0.65
2023-05-01T01:00:00.441Z,0.62
2023-05-01T01:01:00.487Z,0.63
2023-05-01T01:02:00.494Z,0.63
2023-05-01T01:03:00.573Z,0.64
2023-05-01T01:04:00.661Z,0.65
2023-05-01T01:05:00.636Z,0.66
2023-05-01T01:06:00.672Z,0.64
2023-05-01T01:07:00.726Z,0.66
2023-05-01T01:08:00.769Z,0.65
2023-05-01T01:09:00.792Z,0.65
2023-05-01T01:10:00.855Z,0.65
2023-05-01T01:11:00.903Z,0.65
2023-05-01T01:12:00.905Z,0.64
2023-05-01T01:13:00.944Z,0.65
2023-05-01T01:14:01.008Z,0.65
2023-05-01T01:15:01.036Z,0.65
2023-05-01T01:16:01.058Z,0.65
2023-05-01T01:17:01.128Z,0.64
2023-05-01T01:18:01.205Z,0.64
2023-05-01T01:19:01.138Z,0.63
2023-05-01T01:20:01.176Z,0.65
2023-05-01T01:21:01.245Z,0.64
2023-05-01T01:22:01.212Z,0.63
2023-05-01T01:23:01.248Z,0.61
2023-05-01T01:24:01.376Z,0.62
2023-05-01T01:25:01.306Z,0.63
2023-05-01T01:26:01.366Z,0.60
2023-05-01T01:27:01.349Z,0.62
2023-05-01T01:28:01.397Z,0.60
2023-05-01T01:29:01.404Z,0.61
2023-05-01T01:30:01.440Z,0.61
2023-05-01T01:31:01.510Z,0.60
2023-05-01T01:32:01.446Z,0.60
2023-05-01T01:33:01.647Z,0.59
2023-05-01T01:34:01.539Z,0.59
2023-05-01T01:35:01.533Z,0.59
2023-05-01T01:36:01.557Z,0.58
2023-05-01T01:37:01.579Z,0.56
2023-05-01T01:38:01.601Z,0.58
2023-05-01T01:39:01.592Z,0.57
2023-05-01T01:40:01.602Z,0.57
2023-05-01T01:41:01.634Z,0.56
2023-05-01T01:42:01.616Z,0.57
2023-05-01T01:43:01.649Z,0.57
2023-05-01T01:44:01.660Z,0.56
2023-05-01T01:45:01.674Z,0.57
2023-05-01T01:46:01.733Z,0.56
2023-05-01T01:47:01.689Z,0.55
2023-05-01T01:48:01.715Z,0.55
2023-05-01T01:49:01.709Z,0.55
2023-05-01T01:50:01.719Z,0.56
2023-05-01T01:51:01.741Z,0.56
2023-05-01T01:52:01.730Z,0.56
2023-05-01T01:53:01.753Z,0.55
2023-05-01T01:54:01.762Z,0.54
2023-05-01T01:55:01.787Z,0.54
2023-05-01T01:56:03.747Z,0.54
2023-05-01T01:57:01.776Z,0.56
2023-05-01T01:58:01.787Z,0.54
2023-05-01T01:59:01.788Z,0.54
2023-05-01T02:00:01.808Z,0.53
2023-05-01T02:01:01.785Z,0.54
2023-05-01T02:02:01.831Z,0.54
2023-05-01T02:03:01.905Z,0.53
2023-05-01T02:04:01.867Z,0.53
2023-05-01T02:05:01.838Z,0.52
2023-05-01T02:06:01.866Z,0.53
2023-05-01T02:07:01.807Z,0.53
2023-05-01T02:08:01.785Z,0.53
2023-05-01T02:09:01.883Z,0.54
2023-05-01T02:10:01.770Z,0.53
2023-05-01T02:11:02.350Z,0.53
2023-05-01T02:12:01.770Z,0.52
2023-05-01T02:13:01.790Z,0.52
2023-05-01T02:14:01.772Z,0.51
2023-05-01T02:15:01.850Z,0.51
2023-05-01T02:16:01.838Z,0.51
2023-05-01T02:17:01.763Z,0.52
2023-05-01T02:18:01.876Z,0.52
2023-05-01T02:19:01.764Z,0.52
2023-05-01T02:20:01.816Z,0.53
2023-05-01T02:21:01.793Z,0.53
2023-05-01T02:22:01.763Z,0.52
2023-05-01T02:23:01.735Z,0.53
2023-05-01T02:24:01.724Z,0.53
2023-05-01T02:25:01.757Z,0.53
2023-05-01T02:26:01.780Z,0.52
2023-05-01T02:27:01.715Z,0.52
2023-05-01T02:28:01.777Z,0.52
2023-05-01T02:29:01.744Z,0.52
2023-05-01T02:30:01.712Z,0.52
2023-05-01T02:31:01.722Z,0.52
2023-05-01T02:32:01.898Z,0.52
2023-05-01T02:33:01.705Z,0.53
2023-05-01T02:34:01.691Z,0.52
2023-05-01T02:35:01.715Z,0.52
2023-05-01T02:36:01.708Z,0.53
2023-05-01T02:37:01.684Z,0.54
2023-05-01T02:38:01.696Z,0.53
2023-05-01T02:39:01.707Z,0.52
2023-05-01T02:40:01.701Z,0.53
2023-05-01T02:41:01.680Z,0.53
2023-05-01T02:42:01.692Z,0.52
2023-05-01T02:43:01.653Z,0.53
2023-05-01T02:44:01.666Z,0.53
2023-05-01T02:45:01.719Z,0.53
2023-05-01T02:46:01.720Z,0.52
2023-05-01T02:47:01.841Z,0.53
2023-05-01T02:48:01.679Z,0.52
2023-05-01T02:49:01.693Z,0.52
2023-05-01T02:50:01.670Z,0.52
2023-05-01T02:51:01.715Z,0.53
2023-05-01T02:52:01.698Z,0.53
2023-05-01T02:53:01.692Z,0.53
2023-05-01T02:54:01.709Z,0.52
2023-05-01T02:55:01.716Z,0.53
2023-05-01T02:56:01.685Z,0.54
2023-05-01T02:57:01.715Z,0.54
2023-05-01T02:58:01.714Z,0.53
2023-05-01T02:59:01.734Z,0.54
2023-05-01T03:00:01.718Z,0.53
2023-05-01T03:01:01.749Z,0.53
2023-05-01T03:02:01.715Z,0.53
2023-05-01T03:03:01.743Z,0.54
2023-05-01T03:04:01.756Z,0.53
2023-05-01T03:05:01.710Z,0.54
2023-05-01T03:06:01.771Z,0.53
2023-05-01T03:07:01.741Z,0.53
2023-05-01T03:08:01.709Z,0.53
2023-05-01T03:09:01.730Z,0.53
2023-05-01T03:10:01.750Z,0.53
2023-05-01T03:11:01.686Z,0.53
2023-05-01T03:12:01.703Z,0.54
2023-05-01T03:13:01.705Z,0.53
2023-05-01T03:14:01.710Z,0.54
2023-05-01T03:15:01.705Z,0.53
2023-05-01T03:16:01.744Z,0.53
2023-05-01T03:17:01.730Z,0.53
2023-05-01T03:18:01.793Z,0.53
2023-05-01T03:19:01.693Z,0.52
2023-05-01T03:20:01.680Z,0.53
2023-05-01T03:21:01.682Z,0.53
2023-05-01T03:22:01.670Z,0.52
2023-05-01T03:23:01.712Z,0.53
2023-05-01T03:24:01.669Z,0.53
2023-05-01T03:25:01.657Z,0.53
2023-05-01T03:26:01.675Z,0.53
2023-05-01T03:27:01.691Z,0.53
2023-05-01T03:28:01.647Z,0.53
2023-05-01T03:29:01.665Z,0.52
2023-05-01T03:30:01.652Z,0.53
2023-05-01T03:31:01.664Z,0.53
2023-05-01T03:32:01.776Z,0.53
2023-05-01T03:33:01.708Z,0.53
2023-05-01T03:34:01.668Z,0.53
2023-05-01T03:35:01.695Z,0.53
2023-05-01T03:36:01.645Z,0.52
2023-05-01T03:37:01.614Z,0.53
2023-05-01T03:38:01.645Z,0.54
2023-05-01T03:39:01.609Z,0.53
2023-05-01T03:40:01.615Z,0.53
2023-05-01T03:41:01.628Z,0.54
2023-05-01T03:42:01.580Z,0.54
2023-05-01T03:43:01.596Z,0.54
2023-05-01T03:44:01.635Z,0.54
2023-05-01T03:45:01.582Z,0.54
2023-05-01T03:46:01.629Z,0.54
2023-05-01T03:47:01.596Z,0.55
2023-05-01T03:48:01.628Z,0.54
2023-05-01T03:49:01.603Z,0.55
2023-05-01T03:50:01.615Z,0.56
2023-05-01T03:51:01.590Z,0.55
2023-05-01T03:52:01.606Z,0.55
2023-05-01T03:53:01.615Z,0.55
2023-05-01T03:54:01.600Z,0.55
2023-05-01T03:55:01.592Z,0.55
2023-05-01T03:56:01.610Z,0.55
2023-05-01T03:57:01.600Z,0.56
2023-05-01T03:58:01.586Z,0.55
2023-05-01T03:59:01.588Z,0.55
2023-05-01T04:00:01.565Z,0.57
2023-05-01T04:01:01.672Z,0.55
2023-05-01T04:02:01.589Z,0.56
2023-05-01T04:03:01.817Z,0.55
2023-05-01T04:04:01.727Z,0.57
2023-05-01T04:05:01.541Z,0.56
2023-05-01T04:06:01.618Z,0.55
2023-05-01T04:07:01.575Z,0.55
2023-05-01T04:08:01.542Z,0.56
2023-05-01T04:09:01.515Z,0.55
2023-05-01T04:10:01.530Z,0.55
2023-05-01T04:11:01.500Z,0.56
2023-05-01T04:12:01.533Z,0.55
2023-05-01T04:13:01.534Z,0.55
2023-05-01T04:14:01.547Z,0.55
2023-05-01T04:15:01.502Z,0.55
2023-05-01T04:16:01.551Z,0.56
2023-05-01T04:17:01.559Z,0.55
2023-05-01T04:18:01.555Z,0.55
2023-05-01T04:19:01.529Z,0.56
2023-05-01T04:20:01.536Z,0.56
2023-05-01T04:21:01.556Z,0.56
2023-05-01T04:22:01.500Z,0.56
2023-05-01T04:23:01.514Z,0.56
2023-05-01T04:24:01.546Z,0.55
2023-05-01T04:25:01.507Z,0.55
2023-05-01T04:26:01.549Z,0.56
2023-05-01T04:27:01.506Z,0.55
2023-05-01T04:28:01.492Z,0.55
2023-05-01T04:29:01.569Z,0.56
2023-05-01T04:30:01.499Z,0.56
2023-05-01T04:31:01.549Z,0.55
2023-05-01T04:32:01.548Z,0.55
2023-05-01T04:33:01.574Z,0.56
2023-05-01T04:34:01.475Z,0.55
2023-05-01T04:35:01.480Z,0.56
2023-05-01T04:36:01.494Z,0.57
2023-05-01T04:37:01.473Z,0.56
2023-05-01T04:38:01.459Z,0.56
2023-05-01T04:39:01.453Z,0.57
2023-05-01T04:40:01.462Z,0.55
2023-05-01T04:41:01.451Z,0.56
2023-05-01T04:42:01.454Z,0.56
2023-05-01T04:43:01.476Z,0.56
2023-05-01T04:44:01.431Z,0.57
2023-05-01T04:45:01.457Z,0.56
2023-05-01T04:46:01.441Z,0.56
2023-05-01T04:47:01.555Z,0.56
2023-05-01T04:48:01.596Z,0.57
2023-05-01T04:49:01.444Z,0.56
2023-05-01T04:50:01.450Z,0.57
2023-05-01T04:51:01.458Z,0.57
2023-05-01T04:52:01.479Z,0.56
2023-05-01T04:53:01.453Z,0.56
2023-05-01T04:54:01.452Z,0.57
2023-05-01T04:55:01.472Z,0.57
2023-05-01T04:56:01.464Z,0.57
2023-05-01T04:57:01.457Z,0.57
2023-05-01T04:58:01.439Z,0.55
2023-05-01T04:59:01.456Z,0.57
2023-05-01T05:00:01.450Z,0.55
2023-05-01T05:01:08.951Z,0.57
2023-05-01T05:02:01.494Z,0.57
2023-05-01T05:03:01.550Z,0.57
2023-05-01T05:04:01.519Z,0.58
2023-05-01T05:05:01.444Z,0.58
2023-05-01T05:06:01.457Z,0.57
2023-05-01T05:07:01.461Z,0.57
2023-05-01T05:08:01.453Z,0.57
2023-05-01T05:09:01.400Z,0.58
2023-05-01T05:10:01.436Z,0.57
2023-05-01T05:11:01.380Z,0.58
2023-05-01T05:12:01.414Z,0.57
2023-05-01T05:13:01.424Z,0.58
2023-05-01T05:14:01.396Z,0.58
2023-05-01T05:15:01.361Z,0.58
2023-05-01T05:16:01.431Z,0.56
2023-05-01T05:17:01.409Z,0.56
2023-05-01T05:18:01.385Z,0.57
2023-05-01T05:19:01.354Z,0.57
2023-05-01T05:20:01.362Z,0.56
2023-05-01T05:21:01.324Z,0.56
2023-05-01T05:22:01.331Z,0.57
2023-05-01T05:23:01.323Z,0.57
2023-05-01T05:24:01.338Z,0.57
2023-05-01T05:25:01.304Z,0.57
2023-05-01T05:26:01.309Z,0.57
2023-05-01T05:27:01.265Z,0.58
2023-05-01T05:28:01.306Z,0.57
2023-05-01T05:29:01.284Z,0.56
2023-05-01T05:30:01.251Z,0.57
2023-05-01T05:31:01.244Z,0.56
2023-05-01T05:32:01.303Z,0.58
2023-05-01T05:33:01.309Z,0.56
2023-05-01T05:34:01.250Z,0.58
2023-05-01T05:35:01.221Z,0.58
2023-05-01T05:36:01.234Z,0.57
2023-05-01T05:37:01.243Z,0.58
2023-05-01T05:38:01.229Z,0.57
2023-05-01T05:39:01.178Z,0.58
2023-05-01T05:40:01.194Z,0.57
2023-05-01T05:41:01.203Z,0.57
2023-05-01T05:42:01.160Z,0.57
2023-05-01T05:43:01.147Z,0.58
2023-05-01T05:44:01.168Z,0.57
2023-05-01T05:45:01.159Z,0.57
2023-05-01T05:46:08.784Z,0.57
2023-05-01T05:47:01.119Z,0.58
2023-05-01T05:48:01.265Z,0.58
2023-05-01T05:49:01.133Z,0.58
2023-05-01T05:50:01.095Z,0.58
2023-05-01T05:51:01.125Z,0.59
2023-05-01T05:52:01.098Z,0.58
2023-05-01T05:53:01.159Z,0.57
2023-05-01T05:54:01.087Z,0.59
2023-05-01T05:55:01.113Z,0.58
2023-05-01T05:56:01.072Z,0.58
2023-05-01T05:57:01.101Z,0.57
2023-05-01T05:58:01.069Z,0.57
2023-05-01T05:59:01.048Z,0.57
2023-05-01T06:00:01.054Z,0.56
2023-05-01T06:01:01.016Z,0.57
2023-05-01T06:02:01.051Z,0.57
2023-05-01T06:03:01.060Z,0.57
2023-05-01T06:04:01.017Z,0.57
2023-05-01T06:05:01.034Z,0.57
2023-05-01T06:06:01.198Z,0.57
2023-05-01T06:07:01.088Z,0.58
2023-05-01T06:08:01.018Z,0.57
2023-05-01T06:09:00.970Z,0.56
2023-05-01T06:10:01.003Z,0.56
2023-05-01T06:11:00.962Z,0.58
2023-05-01T06:12:00.954Z,0.57
2023-05-01T06:13:13.436Z,0.57
2023-05-01T06:14:01.947Z,0.57
2023-05-01T06:15:00.963Z,0.57
2023-05-01T06:16:01.001Z,0.57
2023-05-01T06:17:00.933Z,0.57
2023-05-01T06:18:00.916Z,0.58
2023-05-01T06:19:00.933Z,0.57
2023-05-01T06:20:00.916Z,0.57
2023-05-01T06:21:00.878Z,0.56
2023-05-01T06:22:00.901Z,0.57
2023-05-01T06:23:00.863Z,0.57
2023-05-01T06:24:00.872Z,0.56
2023-05-01T06:25:00.857Z,0.57
2023-05-01T06:26:00.845Z,0.56
2023-05-01T06:27:01.521Z,0.56
2023-05-01T06:28:00.855Z,0.56
2023-05-01T06:29:00.856Z,0.56
2023-05-01T06:30:00.831Z,0.57
2023-05-01T06:31:00.850Z,0.56
2023-05-01T06:32:00.918Z,0.56
2023-05-01T06:33:00.852Z,0.56
2023-05-01T06:34:00.784Z,0.56
2023-05-01T06:35:00.765Z,0.55
2023-05-01T06:36:00.761Z,0.55
2023-05-01T06:37:00.773Z,0.56
2023-05-01T06:38:00.748Z,0.56
2023-05-01T06:39:00.736Z,0.56
2023-05-01T06:40:00.762Z,0.56
2023-05-01T06:41:00.747Z,0.56
2023-05-01T06:42:00.711Z,0.56
2023-05-01T06:43:00.737Z,0.56
2023-05-01T06:44:00.709Z,0.57
2023-05-01T06:45:00.707Z,0.56
2023-05-01T06:46:00.680Z,0.55
2023-05-01T06:47:00.777Z,0.56
2023-05-01T06:48:00.751Z,0.56
2023-05-01T06:49:00.681Z,0.56
2023-05-01T06:51:00.660Z,0.57
2023-05-01T06:53:00.631Z,0.55
2023-05-01T06:54:00.637Z,0.55
2023-05-01T06:55:00.626Z,0.55
2023-05-01T06:56:00.635Z,0.55
2023-05-01T06:57:00.603Z,0.56
2023-05-01T06:58:02.669Z,0.56
2023-05-01T06:59:01.592Z,0.56
2023-05-01T07:00:00.610Z,0.56
2023-05-01T07:01:00.656Z,0.56
2023-05-01T07:02:00.672Z,0.55
2023-05-01T07:03:00.618Z,0.55
2023-05-01T07:04:00.589Z,0.55
2023-05-01T07:05:00.580Z,0.56
2023-05-01T07:06:00.587Z,0.55
2023-05-01T07:07:00.550Z,0.56
2023-05-01T07:08:01.818Z,0.56
2023-05-01T07:09:00.526Z,0.56
2023-05-01T07:10:00.718Z,0.55
2023-05-01T07:11:00.532Z,0.56
2023-05-01T07:12:00.501Z,0.55
2023-05-01T07:13:00.496Z,0.54
2023-05-01T07:14:00.503Z,0.56
2023-05-01T07:15:00.503Z,0.55
2023-05-01T07:16:00.510Z,0.55
2023-05-01T07:17:00.714Z,0.54
2023-05-01T07:18:00.510Z,0.54
2023-05-01T07:19:00.447Z,0.54
2023-05-01T07:20:00.402Z,0.54
2023-05-01T07:21:00.429Z,0.55
2023-05-01T07:22:00.453Z,0.54
2023-05-01T07:23:00.409Z,0.55
2023-05-01T07:24:00.392Z,0.55
2023-05-01T07:25:00.380Z,0.53
2023-05-01T07:26:00.375Z,0.55
2023-05-01T07:27:00.398Z,0.54
2023-05-01T07:28:00.349Z,0.53
2023-05-01T07:29:00.407Z,0.54
2023-05-01T07:30:00.342Z,0.54
2023-05-01T07:31:00.363Z,0.54
2023-05-01T07:32:00.606Z,0.54
2023-05-01T07:33:00.374Z,0.54
2023-05-01T07:34:00.344Z,0.53
2023-05-01T07:35:00.322Z,0.54
2023-05-01T07:36:00.329Z,0.54
2023-05-01T07:37:00.306Z,0.53
2023-05-01T07:38:00.290Z,0.54
2023-05-01T07:39:00.297Z,0.55
2023-05-01T07:40:00.271Z,0.52
2023-05-01T07:41:00.251Z,0.52
2023-05-01T07:42:00.277Z,0.52
2023-05-01T07:43:00.254Z,0.52
2023-05-01T07:44:00.221Z,0.50
2023-05-01T07:45:00.227Z,0.52
2023-05-01T07:46:00.360Z,0.51
2023-05-01T07:47:00.245Z,0.53
2023-05-01T07:48:00.290Z,0.53
2023-05-01T07:49:00.265Z,0.53
2023-05-01T07:50:00.254Z,0.53
2023-05-01T07:51:00.269Z,0.53
2023-05-01T07:52:00.252Z,0.53
2023-05-01T07:53:00.253Z,0.53
2023-05-01T07:54:00.255Z,0.53
2023-05-01T07:55:00.232Z,0.52
2023-05-01T07:56:00.223Z,0.53
2023-05-01T07:57:00.256Z,0.53
2023-05-01T07:58:00.219Z,0.53
2023-05-01T07:59:00.241Z,0.52
2023-05-01T08:00:00.261Z,0.53
2023-05-01T08:01:00.246Z,0.53
2023-05-01T08:02:00.262Z,0.52
2023-05-01T08:03:00.258Z,0.52
2023-05-01T08:04:00.320Z,0.53
2023-05-01T08:05:00.247Z,0.52
2023-05-01T08:06:00.297Z,0.52
2023-05-01T08:07:00.208Z,0.53
2023-05-01T08:08:00.219Z,0.52
2023-05-01T08:09:00.187Z,0.53
2023-05-01T08:10:00.468Z,0.53
2023-05-01T08:11:00.165Z,0.52
2023-05-01T08:12:00.204Z,0.53
2023-05-01T08:13:00.188Z,0.52
2023-05-01T08:14:00.188Z,0.52
2023-05-01T08:15:00.216Z,0.52
2023-05-01T08:16:00.294Z,0.52
2023-05-01T08:17:00.170Z,0.52
2023-05-01T08:18:00.256Z,0.53
2023-05-01T08:19:00.155Z,0.52
2023-05-01T08:20:00.202Z,0.53
2023-05-01T08:21:00.175Z,0.52
2023-05-01T08:22:00.208Z,0.53
2023-05-01T08:23:00.207Z,0.52
2023-05-01T08:24:00.186Z,0.53
2023-05-01T08:25:00.219Z,0.53
2023-05-01T08:26:00.206Z,0.52
2023-05-01T08:27:00.217Z,0.53
2023-05-01T08:28:00.188Z,0.53
2023-05-01T08:29:00.156Z,0.53
2023-05-01T08:30:00.198Z,0.52
2023-05-01T08:31:00.243Z,0.53
2023-05-01T08:32:00.309Z,0.53
2023-05-01T08:33:00.307Z,0.52
2023-05-01T08:34:00.273Z,0.52
2023-05-01T08:35:00.278Z,0.53
2023-05-01T08:36:00.286Z,0.52
2023-05-01T08:37:00.303Z,0.52
2023-05-01T08:38:00.269Z,0.51
2023-05-01T08:39:00.379Z,0.52
2023-05-01T08:40:00.326Z,0.52
2023-05-01T08:41:00.345Z,0.53
2023-05-01T08:42:00.360Z,0.53
2023-05-01T08:43:00.372Z,0.52
2023-05-01T08:44:00.382Z,0.53
2023-05-01T08:45:00.420Z,0.53
2023-05-01T08:46:00.394Z,0.52
2023-05-01T08:47:00.503Z,0.51
2023-05-01T08:48:00.457Z,0.52
2023-05-01T08:49:00.394Z,0.52
2023-05-01T08:50:00.370Z,0.52
2023-05-01T08:51:00.399Z,0.52
2023-05-01T08:52:00.391Z,0.52
2023-05-01T08:53:00.396Z,0.52
2023-05-01T08:54:00.428Z,0.51
2023-05-01T08:55:00.478Z,0.51
2023-05-01T08:56:00.453Z,0.51
2023-05-01T08:57:00.458Z,0.52
2023-05-01T08:58:00.478Z,0.51
2023-05-01T08:59:00.476Z,0.52
2023-05-01T09:00:00.514Z,0.53
2023-05-01T09:01:00.565Z,0.51
2023-05-01T09:02:00.632Z,0.51
2023-05-01T09:03:00.668Z,0.51
2023-05-01T09:04:00.682Z,0.51
2023-05-01T09:05:00.647Z,0.51
2023-05-01T09:06:00.687Z,0.52
2023-05-01T09:07:00.640Z,0.50
2023-05-01T09:08:00.743Z,0.50
2023-05-01T09:09:00.717Z,0.51
2023-05-01T09:10:00.789Z,0.51
2023-05-01T09:11:00.790Z,0.52
2023-05-01T09:12:00.823Z,0.53
2023-05-01T09:13:00.906Z,0.51
2023-05-01T09:14:00.858Z,0.52
2023-05-01T09:15:00.928Z,0.51
2023-05-01T09:16:00.974Z,0.51
2023-05-01T09:17:01.000Z,0.51
2023-05-01T09:18:03.281Z,0.52
2023-05-01T09:19:01.039Z,0.52
2023-05-01T09:20:01.001Z,0.52
2023-05-01T09:21:01.074Z,0.52
2023-05-01T09:22:01.008Z,0.52
2023-05-01T09:23:00.988Z,0.51
2023-05-01T09:24:00.984Z,0.51
2023-05-01T09:25:00.993Z,0.52
2023-05-01T09:26:00.993Z,0.51
2023-05-01T09:27:01.016Z,0.52
2023-05-01T09:28:00.962Z,0.52
2023-05-01T09:29:00.943Z,0.51
2023-05-01T09:30:00.968Z,0.52
2023-05-01T09:31:00.953Z,0.52
2023-05-01T09:32:00.970Z,0.51
2023-05-01T09:33:00.970Z,0.51
2023-05-01T09:34:00.916Z,0.52
2023-05-01T09:35:00.952Z,0.52
2023-05-01T09:36:00.975Z,0.51
2023-05-01T09:37:00.894Z,0.51
2023-05-01T09:38:00.904Z,0.51
2023-05-01T09:39:00.904Z,0.50
2023-05-01T09:40:00.897Z,0.51
2023-05-01T09:41:00.871Z,0.52
2023-05-01T09:42:00.908Z,0.51
2023-05-01T09:43:00.895Z,0.52
2023-05-01T09:44:00.855Z,0.50
2023-05-01T09:45:00.874Z,0.51
2023-05-01T09:46:00.872Z,0.50
2023-05-01T09:47:01.066Z,0.52
2023-05-01T09:48:00.887Z,0.51
2023-05-01T09:49:00.861Z,0.52
2023-05-01T09:50:00.818Z,0.51
2023-05-01T09:51:00.803Z,0.52
2023-05-01T09:52:00.803Z,0.51
2023-05-01T09:53:00.771Z,0.50
2023-05-01T09:54:00.792Z,0.51
2023-05-01T09:55:00.797Z,0.51
2023-05-01T09:56:00.754Z,0.50
2023-05-01T09:57:00.810Z,0.50
2023-05-01T09:58:00.768Z,0.52
2023-05-01T09:59:00.742Z,0.51
2023-05-01T10:00:00.731Z,0.52
2023-05-01T10:01:00.819Z,0.52
2023-05-01T10:02:00.778Z,0.52
2023-05-01T10:03:00.869Z,0.52
2023-05-01T10:04:00.740Z,0.52
2023-05-01T10:05:00.751Z,0.51
2023-05-01T10:06:00.829Z,0.52
2023-05-01T10:07:00.968Z,0.52
2023-05-01T10:08:00.887Z,0.52
2023-05-01T10:09:00.962Z,0.51
2023-05-01T10:10:01.926Z,0.53
2023-05-01T10:11:01.023Z,0.53
2023-05-01T10:12:01.089Z,0.52
2023-05-01T10:13:01.147Z,0.53
2023-05-01T10:14:01.231Z,0.52
2023-05-01T10:15:07.862Z,0.52
2023-05-01T10:16:02.263Z,0.52
2023-05-01T10:17:01.342Z,0.53
2023-05-01T10:18:01.272Z,0.52
2023-05-01T10:19:02.421Z,0.53
2023-05-01T10:20:01.275Z,0.56
2023-05-01T10:21:01.218Z,0.54
2023-05-01T10:22:01.221Z,0.54
2023-05-01T10:23:01.187Z,0.53
2023-05-01T10:24:01.193Z,0.54
2023-05-01T10:25:01.197Z,0.54
2023-05-01T10:26:02.750Z,0.52
2023-05-01T10:27:01.185Z,0.52
2023-05-01T10:28:01.173Z,0.53
2023-05-01T10:29:01.155Z,0.53
2023-05-01T10:30:01.132Z,0.53
2023-05-01T10:31:01.207Z,0.53
2023-05-01T10:32:01.210Z,0.54
2023-05-01T10:33:01.301Z,0.54
2023-05-01T10:34:01.319Z,0.53
2023-05-01T10:35:01.369Z,0.53
2023-05-01T10:36:01.531Z,0.54
2023-05-01T10:37:01.460Z,0.52
2023-05-01T10:38:01.556Z,0.52
2023-05-01T10:39:01.611Z,0.54
2023-05-01T10:40:01.642Z,0.53
2023-05-01T10:41:01.725Z,0.53
2023-05-01T10:42:01.752Z,0.54
2023-05-01T10:43:01.814Z,0.53
2023-05-01T10:44:01.864Z,0.54
2023-05-01T10:45:01.858Z,0.53
2023-05-01T10:46:01.923Z,0.53
2023-05-01T10:47:01.925Z,0.54
2023-05-01T10:48:02.029Z,0.53
2023-05-01T10:49:02.076Z,0.54
2023-05-01T10:50:02.106Z,0.53
2023-05-01T10:51:02.124Z,0.54
2023-05-01T10:52:02.211Z,0.54
2023-05-01T10:53:02.247Z,0.54
2023-05-01T10:54:02.318Z,0.53
2023-05-01T10:55:02.385Z,0.53
2023-05-01T10:56:02.429Z,0.53
2023-05-01T10:57:02.563Z,0.55
2023-05-01T10:58:02.532Z,0.53
2023-05-01T10:59:02.613Z,0.53
2023-05-01T11:00:02.652Z,0.54
2023-05-01T11:01:02.711Z,0.53
2023-05-01T11:02:02.839Z,0.53
2023-05-01T11:03:02.867Z,0.51
2023-05-01T11:04:02.908Z,0.51
2023-05-01T11:05:03.035Z,0.53
2023-05-01T11:06:03.098Z,0.53
2023-05-01T11:07:03.107Z,0.54
2023-05-01T11:08:03.098Z,0.54
2023-05-01T11:09:03.143Z,0.54
2023-05-01T11:10:03.215Z,0.53
2023-05-01T11:11:03.261Z,0.54
2023-05-01T11:12:03.317Z,0.53
2023-05-01T11:13:03.381Z,0.53
2023-05-01T11:14:03.474Z,0.53
2023-05-01T11:15:03.542Z,0.53
2023-05-01T11:16:03.651Z,0.53
2023-05-01T11:17:03.653Z,0.51
2023-05-01T11:18:03.866Z,0.52
2023-05-01T11:19:03.792Z,0.53
2023-05-01T11:20:03.771Z,0.53
2023-05-01T11:21:03.847Z,0.54
2023-05-01T11:22:03.919Z,0.52
2023-05-01T11:23:04.003Z,0.52
2023-05-01T11:24:04.066Z,0.52
2023-05-01T11:25:04.088Z,0.53
2023-05-01T11:26:04.142Z,0.52
2023-05-01T11:27:04.219Z,0.53
2023-05-01T11:28:04.241Z,0.53
2023-05-01T11:29:04.366Z,0.53
2023-05-01T11:30:04.363Z,0.52
2023-05-01T11:31:04.427Z,0.54
2023-05-01T11:32:04.563Z,0.53
2023-05-01T11:33:04.552Z,0.54
2023-05-01T11:34:04.603Z,0.54
2023-05-01T11:35:04.650Z,0.53
2023-05-01T11:36:04.698Z,0.53
2023-05-01T11:37:04.760Z,0.53
2023-05-01T11:38:04.776Z,0.54
2023-05-01T11:39:04.826Z,0.53
2023-05-01T11:40:04.898Z,0.53
2023-05-01T11:41:04.968Z,0.52
2023-05-01T11:42:05.050Z,0.51
2023-05-01T11:43:05.049Z,0.52
2023-05-01T11:44:05.132Z,0.53
2023-05-01T11:45:05.133Z,0.53
2023-05-01T11:46:05.265Z,0.53
2023-05-01T11:47:05.277Z,0.53
2023-05-01T11:48:05.544Z,0.52
2023-05-01T11:49:05.398Z,0.53
2023-05-01T11:50:05.439Z,0.54
2023-05-01T11:51:05.481Z,0.53
2023-05-01T11:52:05.531Z,0.52
2023-05-01T11:53:05.593Z,0.53
2023-05-01T11:54:05.647Z,0.52
2023-05-01T11:55:05.723Z,0.51
2023-05-01T11:56:13.213Z,0.53
2023-05-01T11:57:06.758Z,0.53
2023-05-01T11:58:05.730Z,0.53
2023-05-01T11:59:05.722Z,0.53
2023-05-01T12:00:05.717Z,0.53
2023-05-01T12:01:05.738Z,0.52
2023-05-01T12:02:05.752Z,0.51
2023-05-01T12:03:05.912Z,0.51
2023-05-01T12:04:05.778Z,0.51
2023-05-01T12:05:05.869Z,0.52
2023-05-01T12:06:05.779Z,0.53
2023-05-01T12:07:05.733Z,0.53
2023-05-01T12:08:05.791Z,0.54
2023-05-01T12:09:05.820Z,0.53
2023-05-01T12:10:05.923Z,0.53
2023-05-01T12:11:05.928Z,0.53
2023-05-01T12:12:05.964Z,0.53
2023-05-01T12:13:06.062Z,0.53
2023-05-01T12:14:06.129Z,0.52
2023-05-01T12:15:06.159Z,0.53
2023-05-01T12:16:06.221Z,0.52
2023-05-01T12:17:06.268Z,0.53
2023-05-01T12:18:06.407Z,0.53
2023-05-01T12:19:06.394Z,0.53
2023-05-01T12:20:06.443Z,0.53
2023-05-01T12:21:06.503Z,0.52
2023-05-01T12:22:06.560Z,0.50
2023-05-01T12:23:06.575Z,0.51
2023-05-01T12:24:06.680Z,0.50
2023-05-01T12:25:06.669Z,0.50
2023-05-01T12:26:06.706Z,0.51
2023-05-01T12:27:06.762Z,0.51
2023-05-01T12:28:06.803Z,0.52
2023-05-01T12:29:06.842Z,0.52
2023-05-01T12:30:06.875Z,0.52
2023-05-01T12:31:07.068Z,0.52
2023-05-01T12:32:07.060Z,0.52
2023-05-01T12:33:07.309Z,0.54
2023-05-01T12:34:07.122Z,0.52
2023-05-01T12:35:07.156Z,0.52
2023-05-01T12:36:07.191Z,0.52
2023-05-01T12:37:07.238Z,0.50
2023-05-01T12:38:07.284Z,0.53
2023-05-01T12:39:07.318Z,0.53
2023-05-01T12:40:07.411Z,0.53
2023-05-01T12:41:07.423Z,0.53
2023-05-01T12:42:07.607Z,0.55
2023-05-01T12:43:07.521Z,0.55
2023-05-01T12:44:07.588Z,0.56
2023-05-01T12:45:07.627Z,0.54
2023-05-01T12:46:07.680Z,0.54
2023-05-01T12:47:07.693Z,0.54
2023-05-01T12:48:07.770Z,0.53
2023-05-01T12:49:07.819Z,0.53
2023-05-01T12:50:07.902Z,0.54
2023-05-01T12:51:07.931Z,0.53
2023-05-01T12:52:08.097Z,0.53
2023-05-01T12:53:08.056Z,0.54
2023-05-01T12:54:08.110Z,0.54
2023-05-01T12:55:08.176Z,0.54
2023-05-01T12:56:08.232Z,0.55
2023-05-01T12:57:08.285Z,0.55
2023-05-01T12:58:08.346Z,0.55
2023-05-01T12:59:08.403Z,0.55
2023-05-01T13:00:08.424Z,0.55
2023-05-01T13:01:08.528Z,0.54
2023-05-01T13:02:08.639Z,0.55
2023-05-01T13:03:08.716Z,0.55
2023-05-01T13:04:08.913Z,0.55
2023-05-01T13:05:08.799Z,0.55
2023-05-01T13:06:08.830Z,0.55
2023-05-01T13:07:08.916Z,0.56
2023-05-01T13:08:08.928Z,0.56
2023-05-01T13:09:08.994Z,0.55
2023-05-01T13:10:09.041Z,0.54
2023-05-01T13:11:09.098Z,0.54
2023-05-01T13:12:09.158Z,0.54
2023-05-01T13:13:09.145Z,0.54
2023-05-01T13:14:09.201Z,0.55
2023-05-01T13:15:09.235Z,0.54
2023-05-01T13:16:09.404Z,0.54
2023-05-01T13:17:09.798Z,0.55
2023-05-01T13:18:09.499Z,0.54
2023-05-01T13:19:09.510Z,0.54
2023-05-01T13:20:09.585Z,0.54
2023-05-01T13:21:09.639Z,0.53